[2025-02-23 00:00:00, 2025-02-23 23:59:59] previous next
| time | temperature | air pressure | humidity | solar radiation | wind speed |
|---|---|---|---|---|---|
| 2025-02-23 07:27:05 | 7.5 | 1018.5 | 99.0 | 17.7 | 0.0 |
| 2025-02-23 07:47:05 | 8.3 | 1018.8 | 99.0 | 22.7 | 0.0 |
| 2025-02-23 08:07:05 | 9.8 | 1019.1 | 99.0 | 27.0 | 0.0 |
| 2025-02-23 08:27:05 | 9.1 | 1019.5 | 99.0 | 30.2 | 1.7 |
| 2025-02-23 08:47:05 | 10.6 | 1019.5 | 97.0 | 33.0 | 2.9 |
| 2025-02-23 09:07:05 | 12.2 | 1019.5 | 89.0 | 34.7 | 2.0 |
| 2025-02-23 09:27:05 | 12.9 | 1019.5 | 85.0 | 38.7 | 2.0 |
| 2025-02-23 09:47:04 | 13.1 | 1019.5 | 84.0 | 48.3 | 1.7 |
| 2025-02-23 10:07:05 | 13.0 | 1019.5 | 84.0 | 62.6 | 2.8 |
| 2025-02-23 10:27:05 | 13.9 | 1019.8 | 82.0 | 41.4 | 2.0 |
| 2025-02-23 10:47:05 | 14.1 | 1019.5 | 80.0 | 44.8 | 0.8 |
| 2025-02-23 11:07:04 | 14.7 | 1019.8 | 81.0 | 136.5 | 0.6 |
| 2025-02-23 11:27:05 | 15.2 | 1019.8 | 77.0 | 146.9 | 2.7 |
| 2025-02-23 11:47:05 | 15.2 | 1019.5 | 76.0 | 245.2 | 2.0 |
| 2025-02-23 12:07:06 | 15.7 | 1019.5 | 75.0 | 269.4 | 0.0 |
| 2025-02-23 12:27:05 | 15.6 | 1019.1 | 73.0 | 280.1 | 3.4 |
| 2025-02-23 12:47:05 | 16.3 | 1019.1 | 72.0 | 295.2 | 3.5 |
| 2025-02-23 13:07:05 | 16.2 | 1018.8 | 70.0 | 127.5 | 2.9 |
| 2025-02-23 13:27:05 | 16.1 | 1018.5 | 70.0 | 112.7 | 2.8 |
| 2025-02-23 13:47:05 | 16.4 | 1018.1 | 70.0 | 97.2 | 1.8 |
| 2025-02-23 14:07:05 | 16.4 | 1017.8 | 71.0 | 265.1 | 1.8 |
| 2025-02-23 14:27:05 | 16.9 | 1017.4 | 66.0 | 79.7 | 2.4 |
| 2025-02-23 14:47:04 | 16.0 | 1017.8 | 67.0 | 88.1 | 3.2 |
| 2025-02-23 15:07:05 | 15.6 | 1017.4 | 68.0 | 178.5 | 2.8 |
| 2025-02-23 15:27:05 | 16.2 | 1017.1 | 66.0 | 209.3 | 3.1 |
| 2025-02-23 15:47:05 | 15.5 | 1017.1 | 68.0 | 177.1 | 3.6 |
| 2025-02-23 17:38:08 | 15.5 | 1016.8 | 68.0 | 0.0 | 0.0 |
CSV export: /station/IWELLEN5/data?period=20250223T000000/20250223T235959&format=csv&tz=GMT